Time;durP1;ratioP1;P1;durP2;ratioP2;P2;SDS_P1;SDS_P2;PMS_P1;PMS_P2;Temp;Humidity;BMP_temperature;BMP_pressure;BME280_temperature;BME280_humidity;BME280_pressure;Samples;Min_cycle;Max_cycle;Signal;HPM_P1;HPM_P2
2023/04/04 00:00:07;;;;;;;;;;;;;;;-0.18;100.00;102968.66;5016869;28;19927;-75
2023/04/04 00:02:32;;;;;;;;;;;;;;;-0.19;100.00;102959.84;5035978;28;19920;-75
2023/04/04 00:04:58;;;;;;;;;;;;;;;-0.19;100.00;102967.75;5050498;28;20039;-75
2023/04/04 00:07:23;;;;;;;;;;;;;;;-0.22;100.00;102958.97;5034382;28;20043;-75
2023/04/04 00:09:48;;;;;;;;;;;;;;;-0.23;100.00;102968.63;5031252;28;19920;-75
2023/04/04 00:12:13;;;;;;;;;;;;;;;-0.26;100.00;102960.69;5019026;28;19971;-75
2023/04/04 00:14:38;;;;;;;;;;;;;;;-0.37;100.00;102963.31;5027869;28;19951;-75
2023/04/04 00:17:04;;;;;;;;;;;;;;;-0.43;100.00;102967.72;5030450;28;19942;-75
2023/04/04 00:19:29;;;;;;;;;;;;;;;-0.49;100.00;102965.94;5016563;28;20461;-75
2023/04/04 00:21:54;;;;;;;;;;;;;;;-0.53;100.00;102966.81;5030726;28;20442;-75
2023/04/04 00:24:19;;;;;;;;;;;;;;;-0.62;100.00;102967.66;5016898;28;20455;-75
2023/04/04 00:26:45;;;;;;;;;;;;;;;-0.59;100.00;102962.41;5016121;28;19924;-75
2023/04/04 00:29:10;;;;;;;;;;;;;;;-0.58;100.00;102966.81;5034165;28;19924;-75
2023/04/04 00:31:35;;;;;;;;;;;;;;;-0.62;100.00;102960.63;5032918;28;19920;-75
2023/04/04 00:34:00;;;;;;;;;;;;;;;-0.61;100.00;102961.50;5032261;28;20719;-75
2023/04/04 00:36:26;;;;;;;;;;;;;;;-0.59;100.00;102961.50;5049100;28;20506;-75
2023/04/04 00:38:51;;;;;;;;;;;;;;;-0.63;100.00;102961.50;5045285;28;21063;-75
2023/04/04 00:41:16;;;;;;;;;;;;;;;-0.71;100.00;102957.06;5029171;28;19948;-75
2023/04/04 00:43:41;;;;;;;;;;;;;;;-0.74;100.00;102959.69;5019291;28;19925;-75
2023/04/04 00:46:06;;;;;;;;;;;;;;;-0.81;100.00;102962.31;5033075;28;19927;-75
2023/04/04 00:48:32;;;;;;;;;;;;;;;-0.85;100.00;102965.81;5045802;28;20034;-75
2023/04/04 00:50:57;;;;;;;;;;;;;;;-0.83;100.00;102958.81;5033660;28;19963;-75
2023/04/04 00:53:22;;;;;;;;;;;;;;;-0.74;100.00;102957.94;5031776;28;20042;-75
2023/04/04 00:55:47;;;;;;;;;;;;;;;-0.65;100.00;102960.59;5027919;28;20023;-75
2023/04/04 00:58:13;;;;;;;;;;;;;;;-0.57;100.00;102959.75;5012421;28;19967;-75
2023/04/04 01:00:38;;;;;;;;;;;;;;;-0.52;100.00;102950.09;5027456;28;19967;-75
2023/04/04 01:03:06;;;;;;;;;;;;;;;-0.51;100.00;102952.72;5038312;28;19920;-75
2023/04/04 01:05:31;;;;;;;;;;;;;;;-0.66;100.00;102943.00;5038480;28;20448;-75
2023/04/04 01:07:56;;;;;;;;;;;;;;;-0.73;100.00;102949.16;5011070;28;19985;-75
2023/04/04 01:10:22;;;;;;;;;;;;;;;-0.71;100.00;102942.13;5036180;28;20030;-76
2023/04/04 01:12:47;;;;;;;;;;;;;;;-0.68;100.00;102943.88;5013070;28;19924;-76
2023/04/04 01:15:12;;;;;;;;;;;;;;;-0.69;100.00;102937.75;5034723;28;20424;-75
2023/04/04 01:17:37;;;;;;;;;;;;;;;-0.71;100.00;102944.78;5030484;28;20355;-75
2023/04/04 01:20:07;;;;;;;;;;;;;;;-0.75;100.00;102943.00;5042936;28;20456;-75
2023/04/04 01:22:32;;;;;;;;;;;;;;;-0.81;100.00;102945.59;5010394;28;19924;-75
2023/04/04 01:24:58;;;;;;;;;;;;;;;-0.88;100.00;102939.44;5030774;28;20023;-75
2023/04/04 01:27:23;;;;;;;;;;;;;;;-0.97;100.00;102942.03;5028569;28;19928;-75
2023/04/04 01:29:49;;;;;;;;;;;;;;;-1.00;100.00;102940.25;5041643;28;19958;-75
2023/04/04 01:32:15;;;;;;;;;;;;;;;-1.01;100.00;102942.88;5026821;28;19928;-75
2023/04/04 01:34:41;;;;;;;;;;;;;;;-1.04;100.00;102934.94;5048386;28;19926;-75
2023/04/04 01:37:09;;;;;;;;;;;;;;;-1.07;100.00;102933.19;5026583;28;19921;-75
2023/04/04 01:39:37;;;;;;;;;;;;;;;-1.10;100.00;102939.34;5025996;28;20015;-75
2023/04/04 01:42:02;;;;;;;;;;;;;;;-1.09;100.00;102942.84;5044745;28;19962;-75
2023/04/04 01:44:27;;;;;;;;;;;;;;;-1.02;100.00;102943.75;5027190;28;19924;-75
2023/04/04 01:46:56;;;;;;;;;;;;;;;-1.01;100.00;102934.97;5010908;28;20011;-75
2023/04/04 01:49:22;;;;;;;;;;;;;;;-1.01;100.00;102935.88;5026956;28;19921;-75
2023/04/04 01:51:48;;;;;;;;;;;;;;;-1.08;100.00;102932.31;5033068;28;20339;-75
2023/04/04 01:54:13;;;;;;;;;;;;;;;-1.12;100.00;102930.53;5027465;28;19933;-75
2023/04/04 01:56:39;;;;;;;;;;;;;;;-1.14;100.00;102934.03;5014312;28;20390;-75
2023/04/04 01:59:04;;;;;;;;;;;;;;;-1.12;100.00;102934.91;5024475;28;19967;-75
2023/04/04 02:01:29;;;;;;;;;;;;;;;-1.14;100.00;102934.03;5027142;28;19924;-75
2023/04/04 02:03:55;;;;;;;;;;;;;;;-1.23;100.00;102924.31;5044162;28;19941;-75
2023/04/04 02:06:21;;;;;;;;;;;;;;;-1.27;100.00;102936.63;5015381;28;20052;-75
2023/04/04 02:08:47;;;;;;;;;;;;;;;-1.25;100.00;102931.34;5041617;28;19917;-75
2023/04/04 02:11:12;;;;;;;;;;;;;;;-1.21;100.00;102939.28;5024969;28;20790;-75
2023/04/04 02:13:40;;;;;;;;;;;;;;;-1.22;100.00;102940.16;5029909;28;19999;-75
2023/04/04 02:16:05;;;;;;;;;;;;;;;-1.21;100.00;102935.75;5026121;28;19982;-75
2023/04/04 02:18:30;;;;;;;;;;;;;;;-1.24;100.00;102938.38;5028842;28;19929;-75
2023/04/04 02:20:59;;;;;;;;;;;;;;;-1.23;100.00;102945.41;5011978;28;20139;-75
2023/04/04 02:23:24;;;;;;;;;;;;;;;-1.22;100.00;102953.34;5016481;28;20306;-75
2023/04/04 02:25:50;;;;;;;;;;;;;;;-1.26;100.00;102959.47;5027957;28;19920;-75
2023/04/04 02:28:15;;;;;;;;;;;;;;;-1.33;100.00;102949.75;5025192;28;20017;-75
2023/04/04 02:30:40;;;;;;;;;;;;;;;-1.38;100.00;102948.84;5027870;28;19920;-75
2023/04/04 02:33:06;;;;;;;;;;;;;;;-1.33;100.00;102948.88;5023362;28;19924;-75
2023/04/04 02:35:31;;;;;;;;;;;;;;;-1.34;100.00;102949.75;5032710;28;20038;-75
2023/04/04 02:37:56;;;;;;;;;;;;;;;-1.40;100.00;102947.94;5013144;28;20283;-75
2023/04/04 02:40:22;;;;;;;;;;;;;;;-1.42;100.00;102944.41;5014116;28;20015;-74
2023/04/04 02:42:47;;;;;;;;;;;;;;;-1.48;100.00;102947.03;5025615;28;19925;-75
2023/04/04 02:45:13;;;;;;;;;;;;;;;-1.53;100.00;102952.25;5033327;28;19975;-75
2023/04/04 02:47:38;;;;;;;;;;;;;;;-1.54;100.00;102943.47;5026952;28;20017;-75
2023/04/04 02:50:04;;;;;;;;;;;;;;;-1.53;100.00;102947.88;5025483;28;19924;-75
2023/04/04 02:52:30;;;;;;;;;;;;;;;-1.53;100.00;102944.34;5023847;28;19985;-75
2023/04/04 02:54:56;;;;;;;;;;;;;;;-1.52;100.00;102943.47;5025490;28;20665;-75
2023/04/04 02:57:21;;;;;;;;;;;;;;;-1.53;100.00;102944.34;5007977;28;20337;-74
2023/04/04 02:59:46;;;;;;;;;;;;;;;-1.57;100.00;102942.56;5017732;28;19920;-75
2023/04/04 03:02:12;;;;;;;;;;;;;;;-1.53;100.00;102939.06;5024114;28;19970;-75
2023/04/04 03:04:37;;;;;;;;;;;;;;;-1.54;100.00;102934.69;5047459;28;19927;-75
2023/04/04 03:07:02;;;;;;;;;;;;;;;-1.54;100.00;102932.03;5021424;28;20055;-74
2023/04/04 03:09:27;;;;;;;;;;;;;;;-1.60;100.00;102929.41;5033377;28;19930;-75
2023/04/04 03:11:53;;;;;;;;;;;;;;;-1.63;100.00;102927.59;5010527;28;19944;-75
2023/04/04 03:14:18;;;;;;;;;;;;;;;-1.67;100.00;102931.97;5010875;28;19924;-75
2023/04/04 03:16:44;;;;;;;;;;;;;;;-1.70;100.00;102931.94;5027767;28;19920;-75
2023/04/04 03:19:09;;;;;;;;;;;;;;;-1.72;100.00;102932.81;5018660;28;19925;-74
2023/04/04 03:21:34;;;;;;;;;;;;;;;-1.74;100.00;102927.53;5026122;28;20401;-74
2023/04/04 03:23:59;;;;;;;;;;;;;;;-1.77;100.00;102922.22;5033124;28;20300;-74
2023/04/04 03:26:27;;;;;;;;;;;;;;;-1.78;100.00;102915.19;5028953;28;20274;-74
2023/04/04 03:28:52;;;;;;;;;;;;;;;-1.84;100.00;102920.41;5035121;28;20212;-73
2023/04/04 03:31:17;;;;;;;;;;;;;;;-1.92;100.00;102919.50;5007513;28;19948;-74
2023/04/04 03:33:43;;;;;;;;;;;;;;;-1.92;100.00;102917.72;5008874;28;19920;-74
2023/04/04 03:36:10;;;;;;;;;;;;;;;-1.89;100.00;102922.16;5037173;28;19928;-74
2023/04/04 03:38:36;;;;;;;;;;;;;;;-1.83;100.00;102922.19;5010077;28;19924;-74
2023/04/04 03:41:02;;;;;;;;;;;;;;;-1.79;100.00;102923.09;5026793;28;19921;-74
2023/04/04 03:43:28;;;;;;;;;;;;;;;-1.89;100.00;102920.38;5029393;28;19924;-74
2023/04/04 03:45:54;;;;;;;;;;;;;;;-1.90;100.00;102923.03;5018668;28;19925;-74
2023/04/04 03:48:19;;;;;;;;;;;;;;;-1.93;100.00;102928.25;5031741;28;19927;-74
2023/04/04 03:50:44;;;;;;;;;;;;;;;-1.97;100.00;102924.69;5050323;28;19928;-74
2023/04/04 03:53:10;;;;;;;;;;;;;;;-1.97;100.00;102925.59;5037862;28;19920;-74
2023/04/04 03:55:36;;;;;;;;;;;;;;;-1.97;100.00;102925.59;5037418;28;19921;-74
2023/04/04 03:58:01;;;;;;;;;;;;;;;-2.32;100.00;102862.13;5034725;28;20310;-74
2023/04/04 04:00:27;;;;;;;;;;;;;;;-2.03;100.00;102917.63;5046055;28;19955;-75
2023/04/04 04:02:52;;;;;;;;;;;;;;;-2.08;100.00;102915.84;5034730;28;19924;-74
2023/04/04 04:05:17;;;;;;;;;;;;;;;-2.11;100.00;102909.69;5038558;28;20359;-74
2023/04/04 04:07:44;;;;;;;;;;;;;;;-2.13;100.00;102915.81;5039882;28;20711;-74
2023/04/04 04:10:09;;;;;;;;;;;;;;;-2.17;100.00;102914.88;5059524;28;19917;-75
2023/04/04 04:12:35;;;;;;;;;;;;;;;-2.19;100.00;102911.34;5059950;28;20417;-74
2023/04/04 04:15:00;;;;;;;;;;;;;;;-2.39;100.00;102886.63;5036938;28;19920;-74
2023/04/04 04:17:26;;;;;;;;;;;;;;;-2.23;100.00;102917.47;5060521;28;19962;-74
2023/04/04 04:19:51;;;;;;;;;;;;;;;-2.29;100.00;102917.44;5038391;28;19928;-74
2023/04/04 04:22:16;;;;;;;;;;;;;;;-2.27;100.00;102916.56;5037983;28;20069;-74
2023/04/04 04:24:41;;;;;;;;;;;;;;;-2.26;100.00;102917.47;5040012;28;20034;-74
2023/04/04 04:27:07;;;;;;;;;;;;;;;-2.28;100.00;102912.16;5063069;28;19916;-74
2023/04/04 04:29:32;;;;;;;;;;;;;;;-2.29;100.00;102912.16;5058446;28;19924;-74
2023/04/04 04:31:57;;;;;;;;;;;;;;;-2.34;100.00;102913.88;5056054;28;19966;-74
2023/04/04 04:34:23;;;;;;;;;;;;;;;-2.35;100.00;102910.34;5058433;28;19924;-74
2023/04/04 04:36:48;;;;;;;;;;;;;;;-2.30;100.00;102910.41;5043009;28;19971;-74
2023/04/04 04:39:13;;;;;;;;;;;;;;;-2.31;100.00;102912.13;5040905;28;20438;-74
2023/04/04 04:41:39;;;;;;;;;;;;;;;-2.32;100.00;102922.66;5042869;28;19916;-75
2023/04/04 04:44:04;;;;;;;;;;;;;;;-2.33;100.00;102913.00;5040910;28;20379;-74
2023/04/04 04:46:30;;;;;;;;;;;;;;;-2.39;100.00;102916.47;5033908;28;20367;-74
2023/04/04 04:48:55;;;;;;;;;;;;;;;-2.42;100.00;102922.56;5040459;28;19959;-74
2023/04/04 04:51:21;;;;;;;;;;;;;;;-2.44;100.00;102923.41;5035826;28;19970;-75
2023/04/04 04:53:46;;;;;;;;;;;;;;;-2.48;100.00;102926.88;5051323;28;20010;-74
2023/04/04 04:56:11;;;;;;;;;;;;;;;-2.50;100.00;102924.22;5029764;28;19998;-74
2023/04/04 04:58:36;;;;;;;;;;;;;;;-2.49;100.00;102923.34;5034263;28;19924;-74
2023/04/04 05:01:02;;;;;;;;;;;;;;;-2.52;100.00;102923.34;5030775;28;19924;-74
2023/04/04 05:03:27;;;;;;;;;;;;;;;-2.52;100.00;102928.59;5036445;28;19955;-74
2023/04/04 05:05:52;;;;;;;;;;;;;;;-2.52;100.00;102927.72;5038392;28;19924;-74
2023/04/04 05:08:17;;;;;;;;;;;;;;;-2.52;100.00;102928.59;5037432;28;19920;-74
2023/04/04 05:10:43;;;;;;;;;;;;;;;-2.59;100.00;102926.78;5038605;28;19939;-74
2023/04/04 05:13:08;;;;;;;;;;;;;;;-2.59;100.00;102929.41;5044603;28;20212;-74
2023/04/04 05:15:34;;;;;;;;;;;;;;;-2.61;100.00;102931.13;5014662;28;19990;-74
2023/04/04 05:17:59;;;;;;;;;;;;;;;-2.65;100.00;102930.22;5035518;28;20275;-74
2023/04/04 05:20:24;;;;;;;;;;;;;;;-2.67;100.00;102926.69;5032648;28;20094;-74
2023/04/04 05:22:50;;;;;;;;;;;;;;;-2.63;100.00;102931.09;5034993;28;19920;-74
2023/04/04 05:25:15;;;;;;;;;;;;;;;-2.66;100.00;102925.81;5039301;28;19963;-74
2023/04/04 05:27:40;;;;;;;;;;;;;;;-2.65;100.00;102929.31;5033979;28;19968;-74
2023/04/04 05:30:06;;;;;;;;;;;;;;;-2.61;100.00;102939.03;5031938;28;20469;-74
2023/04/04 05:32:32;;;;;;;;;;;;;;;-2.63;100.00;102941.63;5037253;28;19920;-74
2023/04/04 05:34:57;;;;;;;;;;;;;;;-2.60;100.00;102940.78;5041539;28;19944;-74
2023/04/04 05:37:22;;;;;;;;;;;;;;;-2.57;100.00;102944.31;5031697;28;19920;-74
2023/04/04 05:39:47;;;;;;;;;;;;;;;-2.57;100.00;102944.31;5026572;28;19928;-74
2023/04/04 05:42:13;;;;;;;;;;;;;;;-2.53;100.00;102950.53;5035822;28;19924;-74
2023/04/04 05:44:38;;;;;;;;;;;;;;;-2.46;100.00;102947.06;5034978;28;19920;-74
2023/04/04 05:47:03;;;;;;;;;;;;;;;-2.44;100.00;102944.47;5036445;28;19930;-74
2023/04/04 05:49:28;;;;;;;;;;;;;;;-2.36;100.00;102949.81;5018207;28;19927;-74
2023/04/04 05:51:56;;;;;;;;;;;;;;;-2.31;100.00;102946.34;5043060;28;19920;-74
2023/04/04 05:54:22;;;;;;;;;;;;;;;-2.19;100.00;102949.97;5027832;28;19964;-74
2023/04/04 05:56:47;;;;;;;;;;;;;;;-2.17;100.00;102957.00;5048459;28;20035;-74
2023/04/04 05:59:12;;;;;;;;;;;;;;;-2.07;100.00;102949.19;5032057;28;20398;-74
2023/04/04 06:01:39;;;;;;;;;;;;;;;-1.99;100.00;102948.41;5050064;28;20375;-74
2023/04/04 06:04:04;;;;;;;;;;;;;;;-1.93;100.00;102954.59;5017835;28;20421;-74
2023/04/04 06:06:29;;;;;;;;;;;;;;;-1.85;100.00;102951.16;5032092;28;19960;-74
2023/04/04 06:08:54;;;;;;;;;;;;;;;-1.80;100.00;102953.81;5034033;28;19920;-74
2023/04/04 06:11:22;;;;;;;;;;;;;;;-1.75;100.00;102949.47;5036013;28;20116;-74
2023/04/04 06:13:48;;;;;;;;;;;;;;;-1.64;100.00;102957.44;5034324;28;19948;-74
2023/04/04 06:16:13;;;;;;;;;;;;;;;-1.53;100.00;102958.41;5036161;28;20011;-74
2023/04/04 06:18:38;;;;;;;;;;;;;;;-1.40;100.00;102951.47;5033849;28;19981;-74
2023/04/04 06:21:03;;;;;;;;;;;;;;;-1.23;100.00;102951.56;5033025;28;19920;-74
2023/04/04 06:23:29;;;;;;;;;;;;;;;-1.09;100.00;102950.75;5051918;28;19925;-74
2023/04/04 06:25:55;;;;;;;;;;;;;;;-0.88;100.00;102949.97;5037388;28;20283;-74
2023/04/04 06:28:20;;;;;;;;;;;;;;;-0.68;100.00;102962.34;5054345;28;19959;-74
2023/04/04 06:30:45;;;;;;;;;;;;;;;-0.52;100.00;102953.59;5018793;28;19971;-74
2023/04/04 06:33:10;;;;;;;;;;;;;;;-0.36;100.00;102946.59;5037948;28;20023;-74
2023/04/04 06:35:36;;;;;;;;;;;;;;;-0.11;100.00;102956.34;5021148;28;19928;-74
2023/04/04 06:38:03;;;;;;;;;;;;;;;0.09;100.00;102959.00;5031527;28;19959;-74
2023/04/04 06:40:28;;;;;;;;;;;;;;;0.26;100.00;102959.88;5015334;28;20636;-74
2023/04/04 06:42:57;;;;;;;;;;;;;;;0.48;100.00;102964.25;5035202;28;20286;-74
2023/04/04 06:45:26;;;;;;;;;;;;;;;0.66;100.00;102960.72;5049997;28;19924;-74
2023/04/04 06:47:52;;;;;;;;;;;;;;;0.89;100.00;102956.25;5020852;28;19956;-75
2023/04/04 06:50:17;;;;;;;;;;;;;;;1.08;100.00;102957.91;5018256;28;20101;-74
2023/04/04 06:52:43;;;;;;;;;;;;;;;1.30;100.00;102953.41;5037973;28;20347;-75
2023/04/04 06:55:08;;;;;;;;;;;;;;;1.52;100.00;102961.25;5031481;28;19924;-75
2023/04/04 06:57:34;;;;;;;;;;;;;;;1.68;100.00;102962.94;5033776;28;20286;-75
2023/04/04 06:59:59;;;;;;;;;;;;;;;1.90;100.00;102966.28;5048903;28;20315;-75
2023/04/04 07:02:25;;;;;;;;;;;;;;;2.20;100.00;102966.94;5053152;28;20022;-75
2023/04/04 07:04:50;;;;;;;;;;;;;;;2.44;100.00;102969.41;5035180;28;20339;-75
2023/04/04 07:07:16;;;;;;;;;;;;;;;2.82;100.00;102970.78;5033779;28;19920;-75
2023/04/04 07:09:41;;;;;;;;;;;;;;;3.05;100.00;102961.66;5034637;28;20007;-75
2023/04/04 07:12:06;;;;;;;;;;;;;;;3.34;100.00;102956.00;5020492;28;19924;-75
2023/04/04 07:14:32;;;;;;;;;;;;;;;3.70;100.00;102956.38;5036297;28;20404;-75
2023/04/04 07:16:57;;;;;;;;;;;;;;;3.84;100.00;102965.91;5023440;28;20275;-75
2023/04/04 07:19:27;;;;;;;;;;;;;;;3.81;100.00;102966.84;5033816;28;20426;-75
2023/04/04 07:21:53;;;;;;;;;;;;;;;4.04;100.00;102962.94;5033751;28;19928;-75
2023/04/04 07:24:18;;;;;;;;;;;;;;;3.95;99.08;102963.09;5017038;28;19920;-75
2023/04/04 07:26:43;;;;;;;;;;;;;;;3.97;100.00;102959.53;5039324;28;19921;-74
2023/04/04 07:29:08;;;;;;;;;;;;;;;4.29;100.00;102949.25;5031858;28;19920;-75
2023/04/04 07:31:34;;;;;;;;;;;;;;;4.27;100.00;102957.22;5017299;28;19959;-75
2023/04/04 07:34:00;;;;;;;;;;;;;;;4.52;95.50;102953.28;5035665;28;19953;-76
2023/04/04 07:36:25;;;;;;;;;;;;;;;4.34;91.98;102948.25;5037958;28;20359;-75
2023/04/04 07:38:50;;;;;;;;;;;;;;;4.40;93.84;102949.91;5032488;28;19956;-75
2023/04/04 07:41:16;;;;;;;;;;;;;;;4.63;93.48;102948.63;5025031;28;19920;-76
2023/04/04 07:43:41;;;;;;;;;;;;;;;4.85;93.60;102950.88;5025811;28;20047;-75
2023/04/04 07:46:06;;;;;;;;;;;;;;;4.85;90.06;102953.53;5054910;28;20264;-76
2023/04/04 07:48:31;;;;;;;;;;;;;;;5.15;87.57;102959.16;5023409;28;20288;-75
2023/04/04 07:50:59;;;;;;;;;;;;;;;5.28;87.65;102957.97;5038457;28;20390;-76
2023/04/04 07:53:24;;;;;;;;;;;;;;;5.58;83.25;102957.31;5059714;28;19924;-76
2023/04/04 07:55:49;;;;;;;;;;;;;;;5.79;83.25;102955.94;5039563;28;20327;-76
2023/04/04 07:58:15;;;;;;;;;;;;;;;5.93;73.26;102958.28;5059620;28;20349;-76
2023/04/04 08:00:40;;;;;;;;;;;;;;;5.97;74.41;102952.81;5032882;28;20307;-76
2023/04/04 08:03:05;;;;;;;;;;;;;;;5.84;70.94;102949.59;5034187;28;21224;-76
2023/04/04 08:05:30;;;;;;;;;;;;;;;6.26;70.39;102950.41;5040933;28;19977;-76
2023/04/04 08:07:56;;;;;;;;;;;;;;;6.25;64.44;102952.16;5043165;28;20457;-76
2023/04/04 08:10:21;;;;;;;;;;;;;;;6.22;72.45;102957.63;5039205;28;19920;-75
2023/04/04 08:12:47;;;;;;;;;;;;;;;6.54;63.68;102960.34;5039376;28;19916;-76
2023/04/04 08:15:13;;;;;;;;;;;;;;;6.75;63.44;102933.06;5038805;28;19921;-76
2023/04/04 08:17:38;;;;;;;;;;;;;;;6.88;71.25;102957.63;5039939;28;20216;-76
2023/04/04 08:20:03;;;;;;;;;;;;;;;7.05;64.44;102958.91;5057718;28;19924;-76
2023/04/04 08:22:29;;;;;;;;;;;;;;;7.04;59.90;102959.84;5041704;28;19997;-76
2023/04/04 08:24:54;;;;;;;;;;;;;;;6.73;60.17;102958.06;5038122;28;19920;-75
2023/04/04 08:27:19;;;;;;;;;;;;;;;6.99;57.79;102951.97;5058638;28;19955;-76
2023/04/04 08:29:46;;;;;;;;;;;;;;;7.37;60.89;102946.41;5038051;28;20425;-76
2023/04/04 08:32:12;;;;;;;;;;;;;;;7.68;62.19;102937.44;5058412;28;19926;-76
2023/04/04 08:34:37;;;;;;;;;;;;;;;7.84;53.36;102937.81;5045686;28;19921;-75
2023/04/04 08:37:03;;;;;;;;;;;;;;;8.17;52.81;102939.41;5060030;28;19925;-76
2023/04/04 08:39:28;;;;;;;;;;;;;;;8.13;53.71;102933.28;5038469;28;20461;-75
2023/04/04 08:42:00;;;;;;;;;;;;;;;8.02;55.95;102941.69;5058372;28;20428;-76
2023/04/04 08:44:26;;;;;;;;;;;;;;;7.74;52.23;102944.38;5052756;28;19927;-76
2023/04/04 08:46:52;;;;;;;;;;;;;;;7.70;53.87;102937.38;5032703;28;20034;-75
2023/04/04 08:49:17;;;;;;;;;;;;;;;7.31;57.27;102931.44;5023468;28;19921;-76
2023/04/04 08:51:42;;;;;;;;;;;;;;;8.05;55.78;102938.91;5055475;28;20371;-76
2023/04/04 08:54:08;;;;;;;;;;;;;;;8.09;51.18;102939.66;5025036;28;19932;-75
2023/04/04 08:56:34;;;;;;;;;;;;;;;8.17;50.70;102928.69;5034244;28;19924;-75
2023/04/04 08:58:59;;;;;;;;;;;;;;;8.37;47.95;102936.03;5042140;28;19964;-76
2023/04/04 09:01:26;;;;;;;;;;;;;;;8.14;46.74;102934.16;5057067;28;19964;-76
2023/04/04 09:03:52;;;;;;;;;;;;;;;8.34;46.71;102936.16;5059762;28;20577;-75
2023/04/04 09:06:18;;;;;;;;;;;;;;;8.24;50.05;102939.13;5023545;28;19927;-75
2023/04/04 09:08:43;;;;;;;;;;;;;;;8.37;46.01;102933.38;5038062;28;19955;-75
2023/04/04 09:11:08;;;;;;;;;;;;;;;8.81;51.26;102936.28;5042833;28;19917;-75
2023/04/04 09:13:35;;;;;;;;;;;;;;;8.94;45.34;102928.66;5051040;28;19924;-75
2023/04/04 09:16:01;;;;;;;;;;;;;;;8.74;44.70;102933.88;5039192;28;19916;-76
2023/04/04 09:18:26;;;;;;;;;;;;;;;8.54;46.96;102932.81;5024199;28;20275;-75
2023/04/04 09:20:52;;;;;;;;;;;;;;;8.65;44.49;102933.28;5038272;28;19959;-75
2023/04/04 09:23:19;;;;;;;;;;;;;;;9.05;44.35;102930.06;5020821;28;19920;-76
2023/04/04 09:25:54;;;;;;;;;;;;;;;9.13;46.76;102926.16;5033657;28;19924;-75
2023/04/04 09:28:19;;;;;;;;;;;;;;;9.50;46.28;102931.88;5038310;28;19921;-75
2023/04/04 09:30:48;;;;;;;;;;;;;;;9.63;44.83;102926.91;5035788;28;20514;-75
2023/04/04 09:33:14;;;;;;;;;;;;;;;9.89;46.72;102931.22;5045225;28;20043;-75
2023/04/04 09:35:43;;;;;;;;;;;;;;;9.59;44.42;102933.31;5032243;28;19920;-75
2023/04/04 09:38:08;;;;;;;;;;;;;;;9.30;41.78;102932.66;5020506;28;19925;-75
2023/04/04 09:40:36;;;;;;;;;;;;;;;8.93;42.53;102932.25;5023999;28;19925;-75
2023/04/04 09:43:04;;;;;;;;;;;;;;;9.37;45.49;102915.41;5020515;28;19952;-75
2023/04/04 09:45:29;;;;;;;;;;;;;;;9.04;43.65;102920.28;5034786;28;19916;-75
2023/04/04 09:47:55;;;;;;;;;;;;;;;9.70;45.29;102912.31;5032195;28;20268;-76
2023/04/04 09:50:22;;;;;;;;;;;;;;;10.18;43.16;102913.00;5014514;28;20301;-74
2023/04/04 09:52:47;;;;;;;;;;;;;;;10.24;41.47;102910.97;5055932;28;19925;-75
2023/04/04 09:55:13;;;;;;;;;;;;;;;10.35;41.92;102889.91;5052540;28;19920;-75
2023/04/04 09:57:39;;;;;;;;;;;;;;;10.09;45.52;102905.34;5055843;28;19920;-75
2023/04/04 10:00:08;;;;;;;;;;;;;;;10.34;43.73;102910.50;5036850;28;19920;-75
2023/04/04 10:02:35;;;;;;;;;;;;;;;10.66;44.24;102899.31;5039677;28;19924;-75
2023/04/04 10:05:00;;;;;;;;;;;;;;;11.24;48.21;102902.94;5037221;28;19924;-75
2023/04/04 10:07:26;;;;;;;;;;;;;;;11.42;41.02;102905.66;5020536;28;19943;-75
2023/04/04 10:09:51;;;;;;;;;;;;;;;10.65;44.60;102903.81;5018399;28;19936;-75
2023/04/04 10:12:20;;;;;;;;;;;;;;;11.01;41.36;102904.88;5034798;28;20271;-75
2023/04/04 10:14:46;;;;;;;;;;;;;;;11.38;41.55;102903.13;5033185;28;19921;-75
2023/04/04 10:17:12;;;;;;;;;;;;;;;11.63;44.90;102895.69;5033905;28;20199;-75
2023/04/04 10:19:37;;;;;;;;;;;;;;;11.51;40.19;102899.84;5034500;28;19962;-75
2023/04/04 10:22:03;;;;;;;;;;;;;;;12.33;41.29;102895.75;5049533;28;19920;-75
2023/04/04 10:24:28;;;;;;;;;;;;;;;12.62;43.04;102893.31;5051315;28;19958;-75
2023/04/04 10:26:54;;;;;;;;;;;;;;;12.67;40.13;102884.97;5049935;28;19927;-75
2023/04/04 10:29:20;;;;;;;;;;;;;;;12.51;40.37;102884.94;5036898;28;20042;-75
2023/04/04 10:31:46;;;;;;;;;;;;;;;13.12;41.89;102883.38;5051026;28;20019;-75
2023/04/04 10:34:11;;;;;;;;;;;;;;;12.33;38.22;102890.34;5022390;28;19926;-75
2023/04/04 10:36:44;;;;;;;;;;;;;;;12.89;38.94;102890.09;5055122;28;20410;-75
2023/04/04 10:39:13;;;;;;;;;;;;;;;12.65;36.29;102889.59;5056767;28;19925;-75
2023/04/04 10:41:38;;;;;;;;;;;;;;;13.17;38.04;102894.78;5035505;28;20014;-75
2023/04/04 10:44:11;;;;;;;;;;;;;;;13.22;40.34;102893.69;5039837;28;19974;-75
2023/04/04 10:46:37;;;;;;;;;;;;;;;13.42;38.74;102887.19;5034588;28;19920;-75
2023/04/04 10:49:03;;;;;;;;;;;;;;;14.06;36.84;102890.63;5038765;28;19921;-75
2023/04/04 10:51:29;;;;;;;;;;;;;;;14.14;35.48;102883.91;5023566;28;20686;-75
2023/04/04 10:53:55;;;;;;;;;;;;;;;14.50;35.74;102869.06;5051504;28;20344;-75
2023/04/04 10:56:20;;;;;;;;;;;;;;;14.02;34.58;102883.66;5055062;28;19927;-74
2023/04/04 10:58:46;;;;;;;;;;;;;;;14.02;34.81;102874.72;5044594;28;19931;-73
2023/04/04 11:01:11;;;;;;;;;;;;;;;13.26;34.74;102874.53;5049236;28;20381;-74
2023/04/04 11:03:55;;;;;;;;;;;;;;;13.40;34.81;102875.56;5021008;28;20357;-74
2023/04/04 11:06:23;;;;;;;;;;;;;;;13.94;35.64;102876.03;5056638;28;19921;-75
2023/04/04 11:08:52;;;;;;;;;;;;;;;14.46;33.87;102867.50;5038599;28;19958;-74
2023/04/04 11:11:18;;;;;;;;;;;;;;;14.63;35.01;102858.34;5036867;28;19920;-74
2023/04/04 11:13:43;;;;;;;;;;;;;;;15.35;35.44;102852.88;5050994;28;20475;-74
2023/04/04 11:16:14;;;;;;;;;;;;;;;14.61;33.30;102863.00;5035103;28;20442;-74
2023/04/04 11:18:44;;;;;;;;;;;;;;;13.91;36.27;102843.81;5031942;28;19932;-73
2023/04/04 11:21:19;;;;;;;;;;;;;;;14.13;36.39;102852.44;5057942;28;19920;-74
2023/04/04 11:23:47;;;;;;;;;;;;;;;15.68;35.34;102843.44;5018050;28;20299;-75
2023/04/04 11:26:13;;;;;;;;;;;;;;;15.84;34.75;102837.84;5051367;28;19920;-74
2023/04/04 11:28:38;;;;;;;;;;;;;;;16.11;35.21;102820.69;5034610;28;20354;-74
2023/04/04 11:31:16;;;;;;;;;;;;;;;16.79;33.86;102810.44;5054236;28;19994;-76
2023/04/04 11:33:54;;;;;;;;;;;;;;;17.53;31.25;102843.94;5048959;28;19920;-74
2023/04/04 11:36:43;;;;;;;;;;;;;;;17.01;32.92;102822.44;5055215;28;19921;-75
2023/04/04 11:39:15;;;;;;;;;;;;;;;17.04;33.06;102824.03;5039876;28;20030;-75
2023/04/04 11:41:46;;;;;;;;;;;;;;;17.30;31.87;102829.38;5049855;28;19920;-75
2023/04/04 11:44:11;;;;;;;;;;;;;;;16.88;32.63;102827.00;5053094;28;20371;-75
2023/04/04 11:46:37;;;;;;;;;;;;;;;16.22;30.31;102849.72;5017890;28;19936;-75
2023/04/04 11:49:02;;;;;;;;;;;;;;;14.47;35.13;102815.19;5035485;28;19924;-74
2023/04/04 11:51:27;;;;;;;;;;;;;;;14.85;35.69;102820.91;5055750;28;19921;-74
2023/04/04 11:53:52;;;;;;;;;;;;;;;14.80;34.41;102823.06;5051094;28;20408;-75
2023/04/04 11:56:18;;;;;;;;;;;;;;;15.91;33.34;102824.78;5035325;28;19939;-75
2023/04/04 11:58:46;;;;;;;;;;;;;;;15.58;35.18;102824.25;5041373;28;19932;-75
2023/04/04 12:01:11;;;;;;;;;;;;;;;17.27;32.80;102835.03;5022122;28;19985;-75
2023/04/04 12:03:37;;;;;;;;;;;;;;;16.06;31.45;102821.97;5053725;28;19937;-75
2023/04/04 12:06:02;;;;;;;;;;;;;;;16.49;32.71;102811.69;5051677;28;20036;-75
2023/04/04 12:08:27;;;;;;;;;;;;;;;17.38;32.79;102816.94;5031933;28;19920;-75
2023/04/04 12:10:53;;;;;;;;;;;;;;;18.04;32.90;102803.88;5053326;28;19924;-75
2023/04/04 12:13:18;;;;;;;;;;;;;;;18.79;32.53;102796.94;5038922;28;19920;-75
2023/04/04 12:15:43;;;;;;;;;;;;;;;18.49;28.95;102806.59;5020872;28;20436;-75
2023/04/04 12:18:09;;;;;;;;;;;;;;;16.84;34.03;102780.25;5031190;28;20414;-75
2023/04/04 12:20:38;;;;;;;;;;;;;;;16.60;36.28;102763.91;5030327;28;19931;-75
2023/04/04 12:23:03;;;;;;;;;;;;;;;16.13;32.40;102783.50;5034882;28;19924;-75
2023/04/04 12:25:32;;;;;;;;;;;;;;;16.81;32.86;102779.63;5053303;28;20649;-75